Industry, Maine
Current Conditions -  °F | °C
As of 5:55 PM on Thursday 27 Nov 2014 (Local Time) from KWVL Reporting Station
Scattered Clouds Scattered Clouds  
Wind Chill: -6°   Ceiling: Unl
Heat Index: -2°   Visibility: 10mi
Dew Point: -8°   Wind: 8mph
Humidity: 64%   Direction: 10°N
Pressure: 29.96"   Gusts: NA
Location:  44.6583°N, 70.1012°W
Report Text: KWVL 272255Z 01007KT 10SM SCT028 M02/M08 A2996 RMK AO1
Loading
Personal Weather Stations






























Interactive Weather Map New forecast layout! Learn more

10-Day Weather Forecast

Advertisements
Track Severe Weather on mobile